Time;durP1;ratioP1;P1;durP2;ratioP2;P2;SDS_P1;SDS_P2;PMS_P1;PMS_P2;Temp;Humidity;BMP_temperature;BMP_pressure;BME280_temperature;BME280_humidity;BME280_pressure;Samples;Min_cycle;Max_cycle;Signal;HPM_P1;HPM_P2
2022/01/31 00:00:09;;;;;;;1999.90;999.90;;;;;;;2.68;76.11;163110.78;5024338;28;20045;-67
2022/01/31 00:02:36;;;;;;;1999.90;999.90;;;;;;;2.64;76.37;163101.22;5025034;28;20088;-67
2022/01/31 00:05:03;;;;;;;1999.90;999.90;;;;;;;2.75;75.94;163129.97;5028200;28;20081;-67
2022/01/31 00:07:30;;;;;;;1999.90;999.90;;;;;;;2.70;76.21;163117.66;5021970;28;20103;-67
2022/01/31 00:09:56;;;;;;;1999.90;999.90;;;;;;;2.82;76.15;163150.50;5017412;28;20054;-68
2022/01/31 00:12:28;;;;;;;1999.90;999.90;;;;;;;2.94;75.40;163182.03;5011884;28;20050;-67
2022/01/31 00:15:01;;;;;;;1999.90;999.90;;;;;;;2.74;75.99;163128.63;5017034;28;20053;-67
2022/01/31 00:17:27;;;;;;;1999.90;999.90;;;;;;;2.50;76.60;163064.25;5019481;28;20085;-68
2022/01/31 00:19:54;;;;;;;1999.90;999.90;;;;;;;2.60;76.00;163090.25;5020013;28;20046;-68
2022/01/31 00:22:20;;;;;;;1999.90;999.90;;;;;;;2.64;76.47;163101.22;5013296;28;20050;-68
2022/01/31 00:24:47;;;;;;;1999.90;999.90;;;;;;;2.64;75.69;163101.22;5023670;28;20049;-68
2022/01/31 00:27:13;;;;;;;1999.90;999.90;;;;;;;2.87;76.08;163161.47;5016557;28;20104;-68
2022/01/31 00:29:40;;;;;;;1999.90;999.90;;;;;;;2.76;75.75;163134.09;5012508;28;20046;-68
2022/01/31 00:32:08;;;;;;;1999.90;999.90;;;;;;;2.87;75.02;163162.84;5013007;28;20119;-68
2022/01/31 00:34:35;;;;;;;1999.90;999.90;;;;;;;2.87;74.88;163161.47;5026496;28;20060;-68
2022/01/31 00:37:01;;;;;;;1999.90;999.90;;;;;;;2.92;74.63;163175.22;5013550;28;20050;-68
2022/01/31 00:39:28;;;;;;;1999.90;999.90;;;;;;;2.80;75.26;163145.06;5020575;28;20096;-68
2022/01/31 00:41:55;;;;;;;1999.90;999.90;;;;;;;2.77;75.04;163136.84;5018674;28;20107;-68
2022/01/31 00:44:27;;;;;;;1999.90;999.90;;;;;;;3.07;74.04;163216.28;5018912;28;20042;-68
2022/01/31 00:46:59;;;;;;;1999.90;999.90;;;;;;;2.83;73.67;163151.91;5017758;28;20044;-68
2022/01/31 00:49:36;;;;;;;1999.90;999.90;;;;;;;2.49;75.18;163061.50;5016977;28;20064;-67
2022/01/31 00:52:04;;;;;;;1999.90;999.90;;;;;;;2.74;74.65;163127.22;5013729;28;20108;-68
2022/01/31 00:54:31;;;;;;;1999.90;999.90;;;;;;;2.75;74.36;163131.31;5015463;28;20057;-68
2022/01/31 00:56:57;;;;;;;1999.90;999.90;;;;;;;2.89;74.83;163166.94;5024662;28;20154;-68
2022/01/31 00:59:24;;;;;;;1999.90;999.90;;;;;;;2.71;73.96;163119.00;5017630;28;20065;-68
2022/01/31 01:01:51;;;;;;;1999.90;999.90;;;;;;;2.53;73.47;163072.47;5023466;28;20446;-68
2022/01/31 01:04:17;;;;;;;1999.90;999.90;;;;;;;2.63;74.11;163098.47;5022149;28;20092;-68
2022/01/31 01:06:44;;;;;;;1999.90;999.90;;;;;;;2.69;74.08;163113.53;5018363;28;20041;-68
2022/01/31 01:09:11;;;;;;;1999.90;999.90;;;;;;;2.42;74.38;163043.66;5027977;28;20053;-68
2022/01/31 01:11:38;;;;;;;1999.90;999.90;;;;;;;2.66;73.22;163106.69;5025749;28;20111;-68
2022/01/31 01:14:04;;;;;;;1999.90;999.90;;;;;;;2.82;73.11;163149.16;5027775;28;20053;-68
2022/01/31 01:16:31;;;;;;;1999.90;999.90;;;;;;;2.70;74.07;163117.66;5028377;28;20085;-68
2022/01/31 01:19:01;;;;;;;1999.90;999.90;;;;;;;2.75;73.46;163129.97;5014748;28;20046;-68
2022/01/31 01:21:27;;;;;;;1999.90;999.90;;;;;;;2.67;74.02;163109.44;5027826;28;20632;-68
2022/01/31 01:23:54;;;;;;;1999.90;999.90;;;;;;;2.78;73.67;163139.59;5025375;28;20442;-68
2022/01/31 01:26:20;;;;;;;1999.90;999.90;;;;;;;2.85;73.73;163156.03;5015515;28;20486;-68
2022/01/31 01:28:47;;;;;;;1999.90;999.90;;;;;;;2.60;74.24;163090.25;5014115;28;20351;-68
2022/01/31 01:31:14;;;;;;;1999.90;999.90;;;;;;;2.75;73.75;163131.31;5017119;28;20045;-68
2022/01/31 01:33:42;;;;;;;1999.90;999.90;;;;;;;2.92;73.17;163175.22;5020972;28;20041;-68
2022/01/31 01:36:09;;;;;;;1999.90;999.90;;;;;;;2.69;72.72;163113.53;5016372;28;20050;-67
2022/01/31 01:38:36;;;;;;;1999.90;999.90;;;;;;;2.70;72.79;163116.28;5021745;28;20104;-68
2022/01/31 01:41:02;;;;;;;1999.90;999.90;;;;;;;2.69;71.91;163114.91;5021077;28;20108;-68
2022/01/31 01:43:30;;;;;;;1999.90;999.90;;;;;;;2.92;71.08;163175.22;5016213;28;20050;-68
2022/01/31 01:45:58;;;;;;;1999.90;999.90;;;;;;;2.75;71.56;163131.31;5018019;28;20434;-68
2022/01/31 01:48:25;;;;;;;1999.90;999.90;;;;;;;2.91;71.41;163172.47;5026457;28;20049;-68
2022/01/31 01:50:53;;;;;;;1999.90;999.90;;;;;;;2.66;71.57;163105.34;5021606;28;20057;-68
2022/01/31 01:53:20;;;;;;;1999.90;999.90;;;;;;;2.44;71.64;163049.19;5014642;28;20387;-68
2022/01/31 01:55:47;;;;;;;1999.90;999.90;;;;;;;2.53;72.41;163071.06;5020477;28;20496;-68
2022/01/31 01:58:17;;;;;;;1999.90;999.90;;;;;;;2.42;71.31;163043.66;5027884;28;20046;-68
2022/01/31 02:00:53;;;;;;;1999.90;999.90;;;;;;;2.24;71.73;162995.75;5031187;28;20060;-68
2022/01/31 02:03:21;;;;;;;1999.90;999.90;;;;;;;2.52;71.26;163069.72;5022611;28;20464;-68
2022/01/31 02:05:48;;;;;;;1999.90;999.90;;;;;;;2.36;71.10;163025.88;5016274;28;20069;-68
2022/01/31 02:08:17;;;;;;;1999.90;999.90;;;;;;;2.33;71.27;163019.03;5026789;28;20602;-68
2022/01/31 02:10:44;;;;;;;1999.90;999.90;;;;;;;2.52;71.18;163068.38;5016305;28;20137;-68
2022/01/31 02:13:15;;;;;;;1999.90;999.90;;;;;;;2.92;70.41;163175.22;5023133;28;20350;-68
2022/01/31 02:15:45;;;;;;;1999.90;999.90;;;;;;;2.61;70.73;163093.00;5017258;28;20053;-68
2022/01/31 02:18:12;;;;;;;1999.90;999.90;;;;;;;2.44;71.76;163049.19;5023807;28;20088;-68
2022/01/31 02:20:40;;;;;;;1999.90;999.90;;;;;;;2.42;72.12;163043.66;5024987;28;20057;-68
2022/01/31 02:23:08;;;;;;;1999.90;999.90;;;;;;;2.41;72.39;163040.97;5023121;28;20078;-68
2022/01/31 02:25:55;;;;;;;1999.90;999.90;;;;;;;2.15;73.19;162969.75;5021460;28;20046;-68
2022/01/31 02:28:24;;;;;;;1999.90;999.90;;;;;;;2.37;73.59;163028.66;5021723;28;20053;-68
2022/01/31 02:30:50;;;;;;;1999.90;999.90;;;;;;;2.41;73.15;163040.97;5016380;28;20131;-68
2022/01/31 02:33:18;;;;;;;1999.90;999.90;;;;;;;2.37;74.05;163030.00;5021857;28;20042;-68
2022/01/31 02:35:51;;;;;;;1999.90;999.90;;;;;;;2.31;73.79;163012.16;5021833;28;20061;-68
2022/01/31 02:38:19;;;;;;;1999.90;999.90;;;;;;;2.09;75.13;162954.69;5013311;28;20053;-68
2022/01/31 02:40:45;;;;;;;1999.90;999.90;;;;;;;2.17;74.95;162975.22;5019083;28;20046;-68
2022/01/31 02:43:18;;;;;;;1999.90;999.90;;;;;;;2.26;75.59;162999.84;5018945;28;20442;-68
2022/01/31 02:45:45;;;;;;;1999.90;999.90;;;;;;;2.32;75.31;163016.28;5013341;28;20109;-68
2022/01/31 02:48:14;;;;;;;1999.90;999.90;;;;;;;2.67;74.69;163108.09;5023834;28;20434;-68
2022/01/31 02:50:41;;;;;;;1999.90;999.90;;;;;;;2.59;75.45;163087.50;5024044;28;20367;-67
2022/01/31 02:53:41;;;;;;;1999.90;999.90;;;;;;;2.93;74.24;163177.91;5011974;28;20120;-67
2022/01/31 02:56:01;;;;;;;1999.90;999.90;;;;;;;2.79;74.94;163142.28;5019514;28;20053;-67
2022/01/31 02:58:29;;;;;;;1999.90;999.90;;;;;;;2.58;75.95;163084.78;5021672;28;20111;-68
2022/01/31 03:00:57;;;;;;;1999.90;999.90;;;;;;;2.94;75.78;163182.03;5016984;28;20100;-67
2022/01/31 03:03:25;;;;;;;1999.90;999.90;;;;;;;2.92;75.30;163175.22;5018729;28;20057;-68
2022/01/31 03:05:52;;;;;;;1999.90;999.90;;;;;;;2.82;75.90;163149.16;5011651;28;20115;-67
2022/01/31 03:08:19;;;;;;;1999.90;999.90;;;;;;;3.17;75.67;163243.72;5024058;28;20350;-67
2022/01/31 03:10:46;;;;;;;1999.90;999.90;;;;;;;3.04;75.86;163208.06;5016551;28;20054;-67
2022/01/31 03:13:12;;;;;;;1999.90;999.90;;;;;;;3.38;74.86;163298.53;5024655;28;20396;-67
2022/01/31 03:15:39;;;;;;;1999.90;999.90;;;;;;;3.02;76.17;163202.56;5023882;28;20057;-67
2022/01/31 03:18:06;;;;;;;1999.90;999.90;;;;;;;3.06;76.64;163213.53;5024002;28;20134;-67
2022/01/31 03:20:33;;;;;;;1999.90;999.90;;;;;;;2.76;77.52;163132.72;5024532;28;20316;-67
2022/01/31 03:23:00;;;;;;;1999.90;999.90;;;;;;;2.49;77.92;163061.50;5016805;28;20061;-67
2022/01/31 03:25:26;;;;;;;1999.90;999.90;;;;;;;2.76;77.46;163134.09;5017598;28;20049;-67
2022/01/31 03:27:53;;;;;;;1999.90;999.90;;;;;;;2.77;77.37;163136.84;5021193;28;20197;-66
2022/01/31 03:30:22;;;;;;;1999.90;999.90;;;;;;;2.52;77.78;163068.38;5018372;28;20046;-67
2022/01/31 03:32:49;;;;;;;1999.90;999.90;;;;;;;2.54;76.66;163075.16;5018081;28;20186;-67
2022/01/31 03:35:16;;;;;;;1999.90;999.90;;;;;;;2.45;77.35;163050.53;5023350;28;20119;-67
2022/01/31 03:37:43;;;;;;;1999.90;999.90;;;;;;;2.32;77.17;163016.28;5012755;28;20100;-67
2022/01/31 03:40:11;;;;;;;1999.90;999.90;;;;;;;2.40;76.72;163038.22;5017779;28;20057;-67
2022/01/31 03:42:38;;;;;;;1999.90;999.90;;;;;;;2.45;77.14;163050.53;5016716;28;20049;-67
2022/01/31 03:45:08;;;;;;;1999.90;999.90;;;;;;;2.82;76.03;163150.50;5013858;28;20049;-67
2022/01/31 03:47:42;;;;;;;1999.90;999.90;;;;;;;2.74;75.89;163128.63;5015820;28;20042;-67
2022/01/31 03:50:10;;;;;;;1999.90;999.90;;;;;;;2.54;76.42;163073.81;5024247;28;20438;-67
2022/01/31 03:52:36;;;;;;;1999.90;999.90;;;;;;;2.69;75.84;163114.91;5016885;28;20062;-67
2022/01/31 03:55:03;;;;;;;1999.90;999.90;;;;;;;2.46;76.75;163053.28;5012572;28;20394;-67
2022/01/31 03:57:31;;;;;;;1999.90;999.90;;;;;;;2.70;75.97;163116.28;5021951;28;20107;-67
2022/01/31 03:59:57;;;;;;;1999.90;999.90;;;;;;;2.56;76.71;163080.69;5024850;28;20063;-67
2022/01/31 04:02:23;;;;;;;1999.90;999.90;;;;;;;2.73;75.76;163124.50;5014922;28;20445;-67
2022/01/31 04:04:50;;;;;;;1999.90;999.90;;;;;;;2.97;75.06;163188.88;5016588;28;20080;-67
2022/01/31 04:07:17;;;;;;;1999.90;999.90;;;;;;;2.82;75.61;163149.16;5018041;28;20127;-67
2022/01/31 04:09:43;;;;;;;1999.90;999.90;;;;;;;2.87;75.43;163162.84;5025631;28;20099;-67
2022/01/31 04:12:10;;;;;;;1999.90;999.90;;;;;;;3.26;74.26;163265.59;5021843;28;20085;-67
2022/01/31 04:14:38;;;;;;;1999.90;999.90;;;;;;;2.66;75.54;163106.69;5021754;28;20042;-67
2022/01/31 04:17:11;;;;;;;1999.90;999.90;;;;;;;2.70;75.41;163116.28;5019266;28;20045;-67
2022/01/31 04:19:38;;;;;;;1999.90;999.90;;;;;;;2.60;76.02;163090.25;5010309;28;20411;-67
2022/01/31 04:22:13;;;;;;;1999.90;999.90;;;;;;;2.57;75.80;163083.38;5022503;28;20049;-67
2022/01/31 04:24:41;;;;;;;1999.90;999.90;;;;;;;2.35;76.17;163024.50;5017743;28;20061;-68
2022/01/31 04:27:15;;;;;;;1999.90;999.90;;;;;;;2.59;75.80;163087.50;5022256;28;20443;-67
2022/01/31 04:29:43;;;;;;;1999.90;999.90;;;;;;;2.81;75.02;163147.81;5022669;28;20058;-67
2022/01/31 04:32:10;;;;;;;1999.90;999.90;;;;;;;2.76;75.15;163134.09;5017148;28;20668;-67
2022/01/31 04:34:37;;;;;;;1999.90;999.90;;;;;;;2.71;75.46;163120.41;5022409;28;20049;-67
2022/01/31 04:37:03;;;;;;;1999.90;999.90;;;;;;;2.69;74.97;163114.91;5014698;28;20045;-67
2022/01/31 04:39:31;;;;;;;1999.90;999.90;;;;;;;2.43;75.68;163045.06;5014426;28;20055;-67
2022/01/31 04:41:58;;;;;;;1999.90;999.90;;;;;;;2.66;74.86;163106.69;5011044;28;20104;-67
2022/01/31 04:44:24;;;;;;;1999.90;999.90;;;;;;;2.35;75.56;163023.13;5021706;28;20042;-67
2022/01/31 04:46:52;;;;;;;1999.90;999.90;;;;;;;2.90;74.63;163169.69;5018859;28;20325;-67
2022/01/31 04:49:19;;;;;;;1999.90;999.90;;;;;;;2.73;74.46;163124.50;5010379;28;20108;-67
2022/01/31 04:51:46;;;;;;;1999.90;999.90;;;;;;;2.85;74.03;163156.03;5018196;28;20119;-66
2022/01/31 04:54:13;;;;;;;1999.90;999.90;;;;;;;2.88;73.58;163165.59;5021012;28;20054;-67
2022/01/31 04:56:42;;;;;;;1999.90;999.90;;;;;;;2.90;73.42;163171.06;5015239;28;20374;-67
2022/01/31 04:59:09;;;;;;;1999.90;999.90;;;;;;;3.34;72.02;163287.56;5011102;28;20076;-67
2022/01/31 05:01:38;;;;;;;1999.90;999.90;;;;;;;2.87;72.72;163161.47;5012576;28;20049;-67
2022/01/31 05:04:05;;;;;;;1999.90;999.90;;;;;;;3.32;71.89;163282.03;5023055;28;20049;-67
2022/01/31 05:06:36;;;;;;;1999.90;999.90;;;;;;;3.46;71.02;163320.44;5013732;28;20128;-67
2022/01/31 05:09:02;;;;;;;1999.90;999.90;;;;;;;3.10;72.04;163224.50;5015963;28;20057;-67
2022/01/31 05:11:29;;;;;;;1999.90;999.90;;;;;;;3.11;72.74;163227.28;5009101;28;20053;-66
2022/01/31 05:13:56;;;;;;;1999.90;999.90;;;;;;;3.02;72.75;163201.22;5013176;28;20442;-67
2022/01/31 05:16:23;;;;;;;1999.90;999.90;;;;;;;2.91;72.93;163172.47;5015291;28;20059;-67
2022/01/31 05:18:49;;;;;;;1999.90;999.90;;;;;;;3.12;73.22;163228.63;5019094;28;20073;-67
2022/01/31 05:21:16;;;;;;;1999.90;999.90;;;;;;;3.16;73.14;163239.59;5013227;28;20053;-67
2022/01/31 05:23:42;;;;;;;1999.90;999.90;;;;;;;3.53;71.75;163338.28;5011903;28;20054;-67
2022/01/31 05:26:09;;;;;;;1999.90;999.90;;;;;;;3.56;71.94;163346.50;5021208;28;20053;-67
2022/01/31 05:28:35;;;;;;;1999.90;999.90;;;;;;;3.70;71.16;163383.50;5014682;28;20046;-67
2022/01/31 05:31:02;;;;;;;1999.90;999.90;;;;;;;3.51;71.69;163332.75;5016040;28;20350;-67
2022/01/31 05:33:28;;;;;;;1999.90;999.90;;;;;;;3.47;72.18;163323.19;5013903;28;20046;-67
2022/01/31 05:35:56;;;;;;;1999.90;999.90;;;;;;;3.45;72.30;163317.69;5012182;28;20089;-67
2022/01/31 05:38:22;;;;;;;1999.90;999.90;;;;;;;3.30;72.58;163276.56;5023967;28;20045;-67
2022/01/31 05:40:49;;;;;;;1999.90;999.90;;;;;;;3.49;72.32;163327.31;5018758;28;20057;-67
2022/01/31 05:43:16;;;;;;;1999.90;999.90;;;;;;;3.13;73.30;163232.72;5012587;28;20100;-67
2022/01/31 05:45:43;;;;;;;1999.90;999.90;;;;;;;3.12;73.50;163228.63;5013215;28;20324;-67
2022/01/31 05:48:09;;;;;;;1999.90;999.90;;;;;;;2.60;75.31;163091.59;5013653;28;20435;-67
2022/01/31 05:50:36;;;;;;;1999.90;999.90;;;;;;;2.64;75.25;163101.22;5018228;28;20389;-67
2022/01/31 05:53:02;;;;;;;1999.90;999.90;;;;;;;2.61;75.22;163094.34;5022446;28;20050;-67
2022/01/31 05:55:29;;;;;;;1999.90;999.90;;;;;;;2.44;75.78;163047.78;5022643;28;20049;-67
2022/01/31 05:57:55;;;;;;;1999.90;999.90;;;;;;;2.08;77.62;162951.94;5023147;28;20050;-67
2022/01/31 06:00:22;;;;;;;1999.90;999.90;;;;;;;2.17;77.76;162976.56;5018118;28;20407;-67
2022/01/31 06:02:57;;;;;;;1999.90;999.90;;;;;;;2.34;77.50;163021.78;5014566;28;20133;-67
2022/01/31 06:05:26;;;;;;;1999.90;999.90;;;;;;;2.44;77.00;163049.19;5019580;28;20174;-67
2022/01/31 06:07:52;;;;;;;1999.90;999.90;;;;;;;2.36;77.07;163027.25;5024261;28;20049;-67
2022/01/31 06:10:22;;;;;;;1999.90;999.90;;;;;;;2.27;77.55;163003.97;5015524;28;20050;-67
2022/01/31 06:12:51;;;;;;;1999.90;999.90;;;;;;;2.50;77.35;163064.25;5021487;28;20053;-67
2022/01/31 06:15:18;;;;;;;1999.90;999.90;;;;;;;2.47;77.71;163057.38;5014398;28;20135;-67
2022/01/31 06:17:45;;;;;;;1999.90;999.90;;;;;;;2.62;76.62;163095.72;5015680;28;20095;-67
2022/01/31 06:20:12;;;;;;;1999.90;999.90;;;;;;;2.79;76.69;163140.94;5018243;28;20143;-67
2022/01/31 06:22:46;;;;;;;1999.90;999.90;;;;;;;2.43;77.50;163045.06;5021456;28;20053;-67
2022/01/31 06:25:13;;;;;;;1999.90;999.90;;;;;;;2.25;78.44;162997.16;5014822;28;20111;-67
2022/01/31 06:27:40;;;;;;;1999.90;999.90;;;;;;;2.31;78.34;163012.16;5025148;28;20107;-67
2022/01/31 06:30:07;;;;;;;1999.90;999.90;;;;;;;2.41;78.14;163040.97;5015004;28;20066;-67
2022/01/31 06:32:34;;;;;;;1999.90;999.90;;;;;;;2.30;78.63;163010.81;5016995;28;20057;-68
2022/01/31 06:35:01;;;;;;;1999.90;999.90;;;;;;;2.50;78.16;163062.84;5020470;28;20080;-68
2022/01/31 06:37:27;;;;;;;1999.90;999.90;;;;;;;2.71;77.61;163119.00;5020219;28;20041;-67
2022/01/31 06:39:53;;;;;;;1999.90;999.90;;;;;;;2.59;77.87;163087.50;5011141;28;20084;-67
2022/01/31 06:42:20;;;;;;;1999.90;999.90;;;;;;;2.70;77.68;163116.28;5021538;28;20111;-67
2022/01/31 06:44:47;;;;;;;1999.90;999.90;;;;;;;2.35;78.43;163024.50;5018078;28;20061;-67
2022/01/31 06:47:13;;;;;;;1999.90;999.90;;;;;;;2.60;78.96;163091.59;5018549;28;20099;-67
2022/01/31 06:49:40;;;;;;;1999.90;999.90;;;;;;;2.83;77.79;163151.91;5011336;28;20091;-67
2022/01/31 06:52:06;;;;;;;1999.90;999.90;;;;;;;2.72;78.34;163123.09;5014822;28;20488;-67
2022/01/31 06:54:33;;;;;;;1999.90;999.90;;;;;;;2.69;78.95;163114.91;5025118;28;20049;-67
2022/01/31 06:57:01;;;;;;;1999.90;999.90;;;;;;;2.74;78.59;163128.63;5012604;28;20058;-67
2022/01/31 06:59:27;;;;;;;1999.90;999.90;;;;;;;2.65;78.81;163103.97;5016350;28;20431;-67
2022/01/31 07:01:59;;;;;;;1999.90;999.90;;;;;;;2.57;79.32;163083.38;5019090;28;20429;-68
2022/01/31 07:04:26;;;;;;;1999.90;999.90;;;;;;;2.71;78.87;163119.00;5013694;28;20045;-66
2022/01/31 07:06:53;;;;;;;1999.90;999.90;;;;;;;2.67;79.27;163109.44;5018191;28;20069;-67
2022/01/31 07:09:21;;;;;;;1999.90;999.90;;;;;;;3.10;77.68;163224.50;5013888;28;20110;-67
2022/01/31 07:11:50;;;;;;;1999.90;999.90;;;;;;;3.15;77.43;163236.84;5020316;28;20110;-68
2022/01/31 07:14:32;;;;;;;1999.90;999.90;;;;;;;3.31;77.51;163279.34;5023833;28;20095;-68
2022/01/31 07:17:02;;;;;;;;;;;;;;;2.99;78.69;163194.34;5017631;28;20377;-67
2022/01/31 07:19:32;;;;;;;1999.90;999.90;;;;;;;3.06;78.78;163213.53;5016088;28;19971;-67
2022/01/31 07:21:59;;;;;;;1999.90;999.90;;;;;;;3.24;78.27;163260.16;5022856;28;20115;-67
2022/01/31 07:24:51;;;;;;;1999.90;999.90;;;;;;;3.01;78.88;163199.88;5013712;28;20078;-67
2022/01/31 07:27:14;;;;;;;1999.90;999.90;;;;;;;2.95;78.77;163183.44;5023492;28;20057;-67
2022/01/31 07:29:40;;;;;;;1999.90;999.90;;;;;;;2.97;79.25;163188.88;5018767;28;20107;-67
2022/01/31 07:32:09;;;;;;;1999.90;999.90;;;;;;;3.00;79.32;163197.09;5006758;28;20053;-67
2022/01/31 07:34:38;;;;;;;1999.90;999.90;;;;;;;2.70;80.21;163116.28;5018170;28;20057;-68
2022/01/31 07:37:05;;;;;;;1999.90;999.90;;;;;;;2.45;81.55;163051.88;5018260;28;20037;-67
2022/01/31 07:39:32;;;;;;;1999.90;999.90;;;;;;;2.60;81.25;163090.25;5024141;28;20045;-67
2022/01/31 07:41:58;;;;;;;1999.90;999.90;;;;;;;2.61;80.56;163093.00;5019756;28;20111;-67
2022/01/31 07:44:25;;;;;;;1999.90;999.90;;;;;;;2.71;80.98;163120.41;5017544;28;20431;-67
2022/01/31 07:46:52;;;;;;;1999.90;999.90;;;;;;;2.69;80.37;163114.91;5023938;28;20340;-67
2022/01/31 07:49:21;;;;;;;1999.90;999.90;;;;;;;2.81;80.19;163147.81;5024101;28;20053;-68
2022/01/31 07:51:48;;;;;;;1999.90;999.90;;;;;;;2.58;81.39;163086.16;5013736;28;20053;-66
2022/01/31 07:54:15;;;;;;;1999.90;999.90;;;;;;;2.68;81.01;163112.19;5016716;28;20430;-67
2022/01/31 07:56:41;;;;;;;1999.90;999.90;;;;;;;2.74;80.98;163128.63;5011065;28;20046;-67
2022/01/31 07:59:08;;;;;;;1999.90;999.90;;;;;;;2.59;81.13;163087.50;5017530;28;20107;-67
2022/01/31 08:01:34;;;;;;;1999.90;999.90;;;;;;;2.76;81.05;163134.09;5016307;28;20047;-67
2022/01/31 08:04:02;;;;;;;1999.90;999.90;;;;;;;2.52;81.09;163068.38;5013497;28;20355;-67
2022/01/31 08:06:28;;;;;;;1999.90;999.90;;;;;;;2.63;80.93;163099.88;5015749;28;20668;-68
2022/01/31 08:08:55;;;;;;;1999.90;999.90;;;;;;;2.55;81.72;163076.56;5012322;28;20068;-67
2022/01/31 08:11:23;;;;;;;1999.90;999.90;;;;;;;2.56;82.01;163079.28;5016996;28;20339;-66
2022/01/31 08:13:55;;;;;;;1999.90;999.90;;;;;;;2.57;81.14;163083.38;5012959;28;20062;-67
2022/01/31 08:16:21;;;;;;;1999.90;999.90;;;;;;;2.45;81.10;163050.53;5021255;28;20060;-67
2022/01/31 08:18:48;;;;;;;1999.90;999.90;;;;;;;2.14;82.54;162968.34;5021212;28;20632;-67
2022/01/31 08:21:15;;;;;;;1999.90;999.90;;;;;;;2.45;82.34;163051.88;5015720;28;20115;-67
2022/01/31 08:23:42;;;;;;;1999.90;999.90;;;;;;;2.37;81.85;163028.66;5016824;28;20061;-67
2022/01/31 08:26:12;;;;;;;1999.90;999.90;;;;;;;2.46;81.85;163054.63;5018403;28;20049;-67
2022/01/31 08:28:43;;;;;;;1999.90;999.90;;;;;;;2.35;82.50;163023.13;5012848;28;20046;-66
2022/01/31 08:31:20;;;;;;;1999.90;999.90;;;;;;;2.79;81.14;163142.28;5020918;28;20068;-67
2022/01/31 08:34:03;;;;;;;1999.90;999.90;;;;;;;2.68;81.30;163110.78;5015222;28;20049;-67
2022/01/31 08:36:34;;;;;;;1999.90;999.90;;;;;;;3.16;79.98;163239.59;5021818;28;20046;-67
2022/01/31 08:39:08;;;;;;;1999.90;999.90;;;;;;;3.15;79.05;163238.19;5010513;28;20058;-66
2022/01/31 08:41:41;;;;;;;1999.90;999.90;;;;;;;3.16;79.10;163240.94;5021435;28;20064;-67
2022/01/31 08:44:11;;;;;;;1999.90;999.90;;;;;;;2.86;80.63;163158.72;5018682;28;20560;-68
2022/01/31 08:46:41;;;;;;;1999.90;999.90;;;;;;;2.72;80.65;163121.75;5016340;28;20587;-67
2022/01/31 08:49:09;;;;;;;1999.90;999.90;;;;;;;3.01;80.03;163199.88;5012681;28;20050;-67
2022/01/31 08:51:37;;;;;;;1999.90;999.90;;;;;;;2.74;80.74;163127.22;5010607;28;20656;-67
2022/01/31 08:54:07;;;;;;;1999.90;999.90;;;;;;;2.79;80.04;163142.28;5010613;28;20057;-67
2022/01/31 08:56:40;;;;;;;1999.90;999.90;;;;;;;2.99;79.93;163194.34;5016289;28;20057;-67
2022/01/31 08:59:08;;;;;;;1999.90;999.90;;;;;;;2.62;80.48;163095.72;5020684;28;20049;-67
2022/01/31 09:01:35;;;;;;;1999.90;999.90;;;;;;;2.85;80.43;163156.03;5015907;28;20058;-67
2022/01/31 09:04:04;;;;;;;1999.90;999.90;;;;;;;2.86;80.22;163158.72;5013059;28;20092;-67
2022/01/31 09:06:33;;;;;;;1999.90;999.90;;;;;;;2.60;80.31;163091.59;5020253;28;20068;-68
2022/01/31 09:09:01;;;;;;;1999.90;999.90;;;;;;;2.75;81.10;163131.31;5013465;28;20108;-67
2022/01/31 09:11:29;;;;;;;1999.90;999.90;;;;;;;2.43;81.46;163045.06;5011621;28;20093;-67
2022/01/31 09:13:55;;;;;;;1999.90;999.90;;;;;;;2.79;80.63;163142.28;5009907;28;20053;-67
2022/01/31 09:16:22;;;;;;;1999.90;999.90;;;;;;;3.11;80.13;163227.28;5021080;28;20399;-67
2022/01/31 09:18:49;;;;;;;1999.90;999.90;;;;;;;3.34;78.94;163288.91;5011634;28;20042;-67
2022/01/31 09:21:16;;;;;;;1999.90;999.90;;;;;;;3.17;78.69;163243.72;5014889;28;20497;-67
2022/01/31 09:23:43;;;;;;;1999.90;999.90;;;;;;;2.93;78.58;163177.91;5021911;28;20062;-67
2022/01/31 09:26:10;;;;;;;1999.90;999.90;;;;;;;2.82;80.27;163150.50;5022108;28;20111;-67
2022/01/31 09:28:36;;;;;;;1999.90;999.90;;;;;;;3.14;79.13;163235.50;5020417;28;20049;-67
2022/01/31 09:31:03;;;;;;;1999.90;999.90;;;;;;;2.79;79.48;163142.28;5021275;28;20053;-67
2022/01/31 09:33:30;;;;;;;1999.90;999.90;;;;;;;2.91;79.70;163173.81;5021757;28;20053;-67
2022/01/31 09:35:56;;;;;;;1999.90;999.90;;;;;;;2.98;79.41;163191.66;5021455;28;20500;-67
2022/01/31 09:38:24;;;;;;;1999.90;999.90;;;;;;;3.16;79.27;163240.94;5017458;28;20041;-67
2022/01/31 09:40:54;;;;;;;1999.90;999.90;;;;;;;3.71;77.47;163386.25;5019328;28;20054;-67
2022/01/31 09:45:58;;;;;;;1999.90;999.90;;;;;;;3.88;77.07;163432.88;5013867;28;20054;-67
2022/01/31 09:48:37;;;;;;;1999.90;999.90;;;;;;;3.96;76.63;163452.03;5020144;28;21133;-67
2022/01/31 09:51:14;;;;;;;1999.90;999.90;;;;;;;3.64;76.84;163367.03;5017468;28;20363;-67
2022/01/31 09:53:50;;;;;;;1999.90;999.90;;;;;;;4.29;75.65;163541.19;5020154;28;20052;-67
2022/01/31 09:56:21;;;;;;;1999.90;999.90;;;;;;;3.92;76.08;163441.09;5014844;28;20070;-67
2022/01/31 09:58:49;;;;;;;1999.90;999.90;;;;;;;3.84;77.26;163420.50;5013887;28;20057;-67
2022/01/31 10:01:18;;;;;;;1999.90;999.90;;;;;;;3.45;77.16;163317.69;5020455;28;20577;-67
2022/01/31 10:03:46;;;;;;;1999.90;999.90;;;;;;;3.65;77.91;163371.16;5014152;28;20058;-67
2022/01/31 10:06:37;;;;;;;1999.90;999.90;;;;;;;3.13;78.81;163232.72;5021638;28;20444;-67
2022/01/31 10:09:06;;;;;;;1999.90;999.90;;;;;;;3.39;78.03;163301.25;5012697;28;20049;-67
2022/01/31 10:11:57;;;;;;;1999.90;999.90;;;;;;;3.04;79.33;163208.06;5015696;28;20108;-67
2022/01/31 10:17:29;;;;;;;1999.90;999.90;;;;;;;3.33;78.71;163284.78;5029031;28;20358;-66
2022/01/31 10:20:25;;;;;;;1999.90;999.90;;;;;;;3.50;77.91;163330.06;5028420;28;20058;-67
2022/01/31 10:22:52;;;;;;;1999.90;999.90;;;;;;;2.99;79.75;163194.34;5025803;28;20053;-68
2022/01/31 10:25:21;;;;;;;1999.90;999.90;;;;;;;3.04;79.43;163208.06;5019651;28;20129;-67
2022/01/31 10:28:11;;;;;;;1999.90;999.90;;;;;;;3.19;79.75;163247.81;5013788;28;20053;-67
2022/01/31 10:30:37;;;;;;;1999.90;999.90;;;;;;;3.10;79.61;163223.16;5020177;28;20049;-68
2022/01/31 10:33:07;;;;;;;1999.90;999.90;;;;;;;3.32;78.89;163282.03;5018754;28;20060;-67
2022/01/31 10:35:35;;;;;;;1999.90;999.90;;;;;;;3.12;78.86;163229.97;5014697;28;20120;-68
2022/01/31 10:38:09;;;;;;;1999.90;999.90;;;;;;;2.66;79.95;163105.34;5012029;28;20107;-68
2022/01/31 10:43:56;;;;;;;1999.90;999.90;;;;;;;3.06;79.36;163213.53;5023909;28;20194;-67
2022/01/31 10:52:06;;;;;;;1999.90;999.90;;;;;;;2.66;79.83;163106.69;5024375;28;20406;-67
2022/01/31 10:57:04;;;;;;;1999.90;999.90;;;;;;;2.75;79.14;163131.31;5019482;28;20402;-67
2022/01/31 10:59:39;;;;;;;1999.90;999.90;;;;;;;2.88;79.31;163164.25;5020389;28;20450;-67
2022/01/31 11:02:12;;;;;;;1999.90;999.90;;;;;;;2.89;78.99;163168.34;5022119;28;20097;-67
2022/01/31 11:04:40;;;;;;;1999.90;999.90;;;;;;;3.07;79.10;163214.94;5017339;28;20042;-68
2022/01/31 11:07:11;;;;;;;1999.90;999.90;;;;;;;3.10;78.64;163223.16;5013125;28;20086;-67
2022/01/31 11:09:38;;;;;;;1999.90;999.90;;;;;;;3.29;77.90;163275.22;5024153;28;20335;-67
2022/01/31 11:12:06;;;;;;;1999.90;999.90;;;;;;;3.11;78.20;163227.28;5018637;28;20107;-68
2022/01/31 11:14:38;;;;;;;1999.90;999.90;;;;;;;2.87;78.55;163162.84;5019993;28;20132;-67
2022/01/31 11:17:12;;;;;;;1999.90;999.90;;;;;;;2.88;78.45;163164.25;5013630;28;20053;-68